Time;durP1;ratioP1;P1;durP2;ratioP2;P2;SDS_P1;SDS_P2;PMS_P1;PMS_P2;Temp;Humidity;BMP_temperature;BMP_pressure;BME280_temperature;BME280_humidity;BME280_pressure;Samples;Min_cycle;Max_cycle;Signal;HPM_P1;HPM_P2
2023/01/18 00:01:08;;;;;;;1.73;0.73;;;13.40;87.90;;;13.41;53.74;93265.50;5042688;28;20828;-57
2023/01/18 00:03:37;;;;;;;3.80;0.80;;;13.30;87.90;;;13.41;54.22;93283.97;5039348;28;20480;-57
2023/01/18 00:06:05;;;;;;;4.60;1.00;;;13.40;88.10;;;13.39;53.96;93263.06;5040534;28;20537;-55
2023/01/18 00:08:35;;;;;;;6.83;1.43;;;13.30;88.10;;;13.36;54.16;93295.13;5041117;28;21828;-57
2023/01/18 00:11:03;;;;;;;1.50;0.70;;;13.30;88.30;;;13.35;54.20;93282.94;5045034;28;20565;-57
2023/01/18 00:13:31;;;;;;;8.43;1.20;;;13.30;88.30;;;13.35;53.84;93277.66;5045863;28;20558;-58
2023/01/18 00:16:03;;;;;;;10.13;1.17;;;13.30;88.30;;;13.36;54.13;93300.41;5045279;28;20547;-57
2023/01/18 00:18:30;;;;;;;2.37;0.83;;;13.30;88.30;;;13.38;53.80;93287.00;5045027;28;20491;-57
2023/01/18 00:21:01;;;;;;;5.73;0.90;;;13.30;88.30;;;13.38;53.96;93245.56;5047600;28;20451;-57
2023/01/18 00:23:28;;;;;;;2.97;0.90;;;13.30;88.10;;;13.38;53.61;93266.69;5045310;28;20547;-56
2023/01/18 00:26:01;;;;;;;3.73;0.90;;;13.30;87.70;;;13.42;53.51;93259.22;5045587;28;20452;-56
2023/01/18 00:28:28;;;;;;;4.10;1.00;;;13.40;87.60;;;13.45;53.54;93250.91;5041680;28;20468;-57
2023/01/18 00:30:55;;;;;;;1.47;0.83;;;13.40;87.50;;;13.49;53.36;93275.06;5041662;28;20499;-58
2023/01/18 00:33:22;;;;;;;1.00;0.77;;;13.40;87.50;;;13.50;53.51;93261.66;5041638;28;20543;-56
2023/01/18 00:35:56;;;;;;;3.17;0.80;;;13.40;87.50;;;13.52;53.63;93261.47;5044646;28;20464;-58
2023/01/18 00:38:24;;;;;;;2.07;0.77;;;13.40;87.50;;;13.52;53.43;93256.19;5044697;28;20559;-56
2023/01/18 00:40:51;;;;;;;3.37;1.30;;;13.40;87.50;;;13.51;53.59;93250.09;5045069;28;20932;-58
2023/01/18 00:46:05;;;;;;;2.63;0.90;;;13.40;87.30;;;13.53;53.29;93256.00;5043608;28;20486;-58
2023/01/18 00:48:32;;;;;;;4.93;1.93;;;13.40;87.20;;;13.55;53.39;93256.59;5037341;28;20475;-55
2023/01/18 00:50:59;;;;;;;6.40;0.80;;;13.50;87.20;;;13.57;53.29;93254.59;5043124;28;20557;-56
2023/01/18 00:53:27;;;;;;;2.17;0.97;;;13.50;86.90;;;13.58;53.40;93237.72;5041190;28;20568;-57
2023/01/18 00:55:54;;;;;;;2.23;0.83;;;13.50;86.70;;;13.61;53.33;93250.53;5044523;28;21025;-57
2023/01/18 00:58:23;;;;;;;3.47;0.87;;;13.50;86.70;;;13.63;52.85;93242.41;5044464;28;20479;-57
2023/01/18 01:00:51;;;;;;;1.73;1.13;;;13.50;86.30;;;13.66;52.83;93238.56;5044929;28;20686;-58
2023/01/18 01:03:19;;;;;;;2.43;1.00;;;13.60;85.70;;;13.68;52.99;93239.16;5044926;28;20506;-58
2023/01/18 01:08:30;;;;;;;3.63;0.87;;;13.60;85.70;;;13.69;53.05;93232.88;5043858;28;20450;-57
2023/01/18 01:11:06;;;;;;;3.53;1.30;;;13.60;85.90;;;13.68;52.69;93249.72;5045083;28;20890;-57
2023/01/18 01:27:17;;;;;;;1.00;0.77;;;13.60;85.70;;;13.72;52.59;93224.56;5045506;28;20427;-58
2023/01/18 01:29:46;;;;;;;2.40;1.10;;;13.70;85.80;;;13.73;52.98;93202.41;5049416;28;20459;-57
2023/01/18 01:32:13;;;;;;;1.67;0.70;;;13.70;85.80;;;13.72;53.00;93229.84;5049160;28;20492;-57
2023/01/18 01:34:41;;;;;;;2.33;0.90;;;13.60;86.40;;;13.72;52.46;93253.63;5049043;28;20494;-57
2023/01/18 01:37:10;;;;;;;1.37;0.70;;;13.60;85.70;;;13.73;52.91;93210.34;5048359;28;20502;-57
2023/01/18 01:39:38;;;;;;;4.97;0.80;;;13.70;85.80;;;13.73;52.97;93192.66;5049150;28;20829;-57
2023/01/18 01:42:05;;;;;;;1.67;0.70;;;13.70;85.80;;;13.73;52.72;93226.19;5047308;28;20951;-59
2023/01/18 01:45:00;;;;;;;3.20;0.90;;;13.70;85.80;;;13.74;52.75;93211.94;5047781;28;20553;-58
2023/01/18 01:47:35;;;;;;;3.23;0.90;;;13.70;85.80;;;13.73;52.59;93249.97;5004883;28;20509;-56
2023/01/18 01:50:09;;;;;;;11.17;0.80;;;13.70;85.80;;;13.75;52.46;93240.00;5047397;28;20517;-57
2023/01/18 01:52:37;;;;;;;1.50;0.70;;;13.70;85.80;;;13.78;52.18;93244.91;5048362;28;20609;-57
2023/01/18 01:55:08;;;;;;;1.40;0.70;;;13.70;85.10;;;13.79;52.36;93238.59;5048512;28;20447;-57
2023/01/18 01:57:37;;;;;;;2.73;0.67;;;13.70;85.00;;;13.80;52.34;93230.47;5043745;28;20487;-56
2023/01/18 02:00:09;;;;;;;2.70;0.70;;;13.70;84.50;;;13.83;52.04;93245.09;5048113;28;20456;-57
2023/01/18 02:02:36;;;;;;;1.93;0.90;;;13.70;84.50;;;13.85;52.01;93244.91;5048132;28;20992;-57
2023/01/18 02:05:04;;;;;;;1.83;0.67;;;13.70;84.10;;;13.87;51.62;93270.13;5048300;28;20505;-56
2023/01/18 02:07:32;;;;;;;4.33;1.17;;;13.80;83.90;;;13.90;51.88;93256.50;5047259;28;20972;-57
2023/01/18 02:09:59;;;;;;;11.30;4.73;;;13.80;83.80;;;13.90;51.89;93238.00;5048739;28;20459;-57
2023/01/18 02:12:26;;;;;;;5.93;1.63;;;13.80;84.00;;;13.89;51.97;93257.50;5048300;28;21090;-58
2023/01/18 02:14:54;;;;;;;1.40;1.00;;;13.80;84.10;;;13.88;51.78;93255.91;5048387;28;20513;-57
2023/01/18 02:17:34;;;;;;;2.60;1.50;;;13.80;84.00;;;13.89;52.11;93251.44;5047585;28;20814;-58
2023/01/18 02:20:48;;;;;;;3.77;0.90;;;13.80;84.30;;;13.88;52.32;93253.25;5048413;28;20497;-57
2023/01/18 02:24:08;;;;;;;2.03;1.10;;;13.80;84.30;;;13.86;52.40;93236.78;5046611;28;20475;-58
2023/01/18 02:27:10;;;;;;;2.60;1.30;;;13.80;84.50;;;13.84;52.19;93265.25;5044729;28;20451;-57
2023/01/18 02:29:56;;;;;;;4.23;1.00;;;13.80;84.70;;;13.82;52.22;93254.06;5046141;28;20443;-56
2023/01/18 02:32:33;;;;;;;4.30;0.90;;;13.70;84.70;;;13.79;52.38;93254.47;5044728;28;20568;-57
2023/01/18 02:35:07;;;;;;;8.83;1.80;;;13.70;84.60;;;13.78;52.35;93272.13;5047214;28;20485;-58
2023/01/18 02:37:42;;;;;;;3.60;1.00;;;13.70;84.80;;;13.77;52.53;93275.81;5047663;28;20530;-58
2023/01/18 02:40:15;;;;;;;3.13;1.20;;;13.70;84.90;;;13.77;52.55;93248.53;5044031;28;20542;-57
2023/01/18 02:48:18;;;;;;;1.90;1.47;;;13.70;84.80;;;13.77;52.42;93259.09;5046922;28;20494;-56
2023/01/18 02:50:45;;;;;;;7.53;3.37;;;13.70;84.90;;;13.77;52.52;93248.53;5047188;28;20455;-56
2023/01/18 02:53:13;;;;;;;6.27;1.73;;;13.70;84.90;;;13.77;52.48;93264.41;5047608;28;20494;-57
2023/01/18 02:55:45;;;;;;;2.47;1.17;;;13.70;85.00;;;13.77;52.38;93256.47;5047579;28;20523;-58
2023/01/18 02:58:16;;;;;;;2.30;1.03;;;13.70;85.00;;;13.77;52.32;93267.88;5047254;28;20847;-56
2023/01/18 03:00:48;;;;;;;6.37;1.70;;;13.70;84.90;;;13.78;52.46;93271.31;5043313;28;20440;-58
2023/01/18 03:03:15;;;;;;;3.00;1.23;;;13.70;84.60;;;13.78;52.50;93273.97;5047253;28;21102;-57
2023/01/18 03:05:42;;;;;;;7.13;1.83;;;13.70;84.50;;;13.79;52.11;93275.59;5046802;28;20533;-58
2023/01/18 03:08:11;;;;;;;8.20;1.67;;;13.70;84.50;;;13.78;52.05;93266.84;5044592;28;20495;-57
2023/01/18 03:10:46;;;;;;;3.73;1.20;;;13.70;84.40;;;13.80;52.13;93279.84;5036851;28;20509;-58
2023/01/18 03:13:16;;;;;;;5.13;1.10;;;13.70;84.30;;;13.79;52.19;93281.69;5047344;28;20740;-58
2023/01/18 03:15:48;;;;;;;4.90;1.60;;;13.70;84.20;;;13.80;52.27;93285.97;5047063;28;20574;-57
2023/01/18 03:18:19;;;;;;;7.70;1.20;;;13.70;84.40;;;13.81;52.44;93281.50;5047077;28;20471;-57
2023/01/18 03:20:50;;;;;;;3.00;1.10;;;13.70;84.50;;;13.81;52.18;93281.50;5047314;28;20446;-57
2023/01/18 03:26:05;;;;;;;5.00;0.70;;;13.70;84.50;;;13.80;52.33;93279.84;5044318;28;20447;-56
2023/01/18 03:34:16;;;;;;;3.10;1.13;;;13.70;84.40;;;13.80;52.41;93290.41;5044250;28;20462;-57
2023/01/18 03:36:46;;;;;;;6.13;1.13;;;13.70;84.40;;;13.79;52.29;93271.13;5045535;28;20440;-59
2023/01/18 03:39:18;;;;;;;4.20;1.30;;;13.70;84.20;;;13.81;51.98;93261.16;5046354;28;20551;-57
2023/01/18 03:41:48;;;;;;;8.37;0.83;;;13.70;84.30;;;13.81;52.29;93270.91;5046488;28;20462;-56
2023/01/18 03:44:19;;;;;;;6.67;1.50;;;13.70;84.00;;;13.83;51.95;93262.78;5046449;28;20480;-58
2023/01/18 03:46:47;;;;;;;1.70;1.00;;;13.70;84.00;;;13.81;52.17;93255.88;5045189;28;20448;-57
2023/01/18 03:49:15;;;;;;;7.43;1.00;;;13.70;83.80;;;13.84;52.17;93256.50;5046202;28;20483;-57
2023/01/18 03:51:55;;;;;;;4.90;1.40;;;13.70;84.50;;;13.85;52.09;93227.22;5039896;28;20507;-59
2023/01/18 03:54:28;;;;;;;2.43;1.00;;;13.70;83.80;;;13.85;52.24;93235.16;5041183;28;20852;-57
2023/01/18 03:57:00;;;;;;;2.50;1.20;;;13.70;83.80;;;13.85;51.81;93223.75;5046566;28;20467;-58
2023/01/18 03:59:30;;;;;;;3.50;1.00;;;13.80;83.80;;;13.83;51.81;93205.47;5041250;28;20487;-58
2023/01/18 04:01:59;;;;;;;3.90;1.33;;;13.70;83.30;;;13.85;51.72;93258.13;5042152;28;20455;-58
2023/01/18 04:04:26;;;;;;;4.47;0.90;;;13.70;83.10;;;13.85;51.54;93227.22;5045549;28;20479;-57
2023/01/18 04:06:53;;;;;;;3.23;0.93;;;13.70;82.80;;;13.87;51.64;93224.41;5045753;28;20452;-57
2023/01/18 04:09:20;;;;;;;10.43;1.57;;;13.80;83.00;;;13.88;51.49;93218.91;5041900;28;20479;-57
2023/01/18 04:11:48;;;;;;;8.57;1.13;;;13.80;82.80;;;13.89;51.58;93225.00;5045477;28;20867;-56
2023/01/18 04:14:15;;;;;;;17.33;1.30;;;13.80;82.80;;;13.89;51.47;93220.50;5045808;28;20568;-57
2023/01/18 04:16:42;;;;;;;5.77;1.20;;;13.80;82.60;;;13.89;51.67;93225.81;5045283;28;20448;-58
2023/01/18 04:19:11;;;;;;;17.63;1.30;;;13.80;82.70;;;13.91;51.55;93230.88;5045887;28;20478;-57
2023/01/18 04:21:38;;;;;;;4.70;1.20;;;13.80;82.60;;;13.91;51.48;93244.94;5045955;28;20467;-56
2023/01/18 04:24:06;;;;;;;7.47;0.83;;;13.80;82.60;;;13.92;51.40;93251.81;5046067;28;20514;-57
2023/01/18 04:26:34;;;;;;;4.77;1.23;;;13.90;82.60;;;13.91;51.48;93257.31;5045670;28;20513;-58
2023/01/18 04:29:01;;;;;;;3.17;1.30;;;13.80;82.60;;;13.91;51.53;93226.44;5045946;28;20550;-57
2023/01/18 04:31:29;;;;;;;4.37;1.30;;;13.80;82.40;;;13.91;51.46;93229.06;5045554;28;20456;-58
2023/01/18 04:33:56;;;;;;;4.70;1.10;;;13.90;82.60;;;13.90;51.60;93227.44;5044468;28;20495;-58
2023/01/18 04:36:25;;;;;;;6.53;1.37;;;13.80;82.40;;;13.91;51.65;93205.28;5045474;28;20514;-57
2023/01/18 04:38:56;;;;;;;3.40;1.10;;;13.80;82.40;;;13.93;51.54;93200.59;5041355;28;21169;-57
2023/01/18 04:41:23;;;;;;;18.47;5.20;;;13.90;82.50;;;13.91;51.62;93192.06;5043858;28;20889;-58
2023/01/18 04:43:50;;;;;;;13.07;1.17;;;13.80;82.40;;;13.93;51.51;93226.22;5044857;28;20464;-57
2023/01/18 04:46:17;;;;;;;7.30;2.03;;;13.80;82.20;;;13.93;51.31;93216.47;5044459;28;20523;-57
2023/01/18 04:48:45;;;;;;;19.53;1.80;;;13.90;82.50;;;13.92;51.49;93214.03;5045192;28;20741;-57
2023/01/18 04:51:13;;;;;;;6.23;1.33;;;13.80;82.50;;;13.90;51.66;93201.00;5043671;28;20575;-57
2023/01/18 04:53:42;;;;;;;8.00;2.30;;;13.80;82.70;;;13.88;51.79;93195.13;5044267;28;20491;-58
2023/01/18 04:56:09;;;;;;;1.90;1.50;;;13.80;82.80;;;13.88;51.67;93199.56;5043729;28;20481;-58
2023/01/18 04:58:37;;;;;;;4.37;1.10;;;13.80;82.80;;;13.84;51.94;93203.66;5038560;28;20482;-57
2023/01/18 05:01:04;;;;;;;6.30;1.53;;;13.80;82.80;;;13.85;51.61;93206.09;5039845;28;20460;-57
2023/01/18 05:03:36;;;;;;;9.83;1.37;;;13.80;82.70;;;13.87;51.65;93167.06;5043475;28;20842;-57
2023/01/18 05:06:06;;;;;;;8.03;2.60;;;13.80;82.50;;;13.89;51.56;93193.28;5040682;28;20444;-59
2023/01/18 05:08:33;;;;;;;7.57;1.73;;;13.80;82.60;;;13.89;52.02;93162.38;5043316;28;20575;-56
2023/01/18 05:11:06;;;;;;;5.63;1.33;;;13.80;83.00;;;13.92;51.31;93203.44;5043979;28;20452;-56
2023/01/18 05:13:33;;;;;;;3.33;1.40;;;13.90;82.40;;;13.95;51.40;93195.13;5044521;28;20519;-55
2023/01/18 05:16:00;;;;;;;9.63;1.40;;;13.90;82.30;;;13.95;51.22;93224.19;5044385;28;20455;-56
2023/01/18 05:18:28;;;;;;;4.63;1.40;;;13.90;82.10;;;13.97;51.52;93223.00;5043598;28;20479;-56
2023/01/18 05:20:55;;;;;;;8.10;2.27;;;13.90;82.20;;;13.99;51.23;93172.56;5043791;28;20467;-56
2023/01/18 05:23:23;;;;;;;9.00;1.03;;;13.90;81.80;;;14.04;51.00;93201.03;5044154;28;21032;-55
2023/01/18 05:25:53;;;;;;;3.90;0.97;;;13.90;81.30;;;14.06;50.94;93217.50;5043548;28;20487;-56
2023/01/18 05:28:22;;;;;;;13.10;1.30;;;14.00;81.10;;;14.08;50.59;93181.09;5043400;28;20655;-56
2023/01/18 05:30:50;;;;;;;7.20;1.07;;;14.00;80.90;;;14.09;50.95;93201.22;5042425;28;20463;-56
2023/01/18 05:33:17;;;;;;;6.90;1.50;;;14.00;81.10;;;14.09;50.86;93214.44;5040485;28;20549;-57
2023/01/18 05:35:49;;;;;;;5.47;1.10;;;14.00;80.70;;;14.11;50.67;93229.09;5041703;28;21043;-58
2023/01/18 05:38:17;;;;;;;4.93;1.10;;;14.00;80.50;;;14.13;50.78;93190.06;5041994;28;20882;-58
2023/01/18 05:40:44;;;;;;;16.10;1.40;;;14.00;80.40;;;14.15;50.37;93208.34;5043658;28;20473;-57
2023/01/18 05:43:12;;;;;;;4.33;2.30;;;14.10;80.20;;;14.16;50.75;93221.38;5043173;28;20905;-58
2023/01/18 05:45:42;;;;;;;19.03;1.27;;;14.10;80.20;;;14.16;50.37;93180.91;5042268;28;20451;-57
2023/01/18 05:48:09;;;;;;;4.63;1.20;;;14.10;80.00;;;14.16;50.47;93210.78;5041698;28;20983;-57
2023/01/18 05:50:38;;;;;;;1.93;1.20;;;14.10;80.20;;;14.19;50.23;93221.97;5044413;28;20459;-57
2023/01/18 05:53:05;;;;;;;4.23;1.23;;;14.10;80.00;;;14.20;50.60;93218.31;5044476;28;20503;-57
2023/01/18 05:55:33;;;;;;;5.30;1.60;;;14.10;80.00;;;14.20;50.38;93199.81;5044589;28;20448;-57
2023/01/18 05:58:00;;;;;;;3.43;1.47;;;14.10;80.10;;;14.21;50.44;93220.75;5041409;28;20533;-57
2023/01/18 06:00:27;;;;;;;7.67;1.40;;;14.10;79.90;;;14.21;50.49;93183.75;5044319;28;20459;-56
2023/01/18 06:02:56;;;;;;;4.93;1.80;;;14.10;80.00;;;14.22;50.35;93235.63;5045887;28;20571;-57
2023/01/18 06:05:23;;;;;;;5.00;0.93;;;14.10;79.90;;;14.26;50.29;93230.72;5048095;28;20864;-57
2023/01/18 06:07:51;;;;;;;9.87;2.03;;;14.10;80.00;;;14.32;49.93;93288.91;5048033;28;20471;-57
2023/01/18 06:10:18;;;;;;;8.23;1.73;;;14.20;79.50;;;14.41;49.63;93227.91;5043764;28;20447;-56
2023/01/18 06:12:46;;;;;;;10.73;1.20;;;14.30;79.10;;;14.49;49.72;93225.03;5047412;28;20496;-57
2023/01/18 06:15:14;;;;;;;5.17;1.17;;;14.40;79.30;;;14.51;50.03;93231.72;5047521;28;20456;-57
2023/01/18 06:17:41;;;;;;;4.20;1.50;;;14.40;79.20;;;14.47;49.78;93232.38;5048014;28;20498;-58
2023/01/18 06:20:13;;;;;;;8.93;1.30;;;14.40;79.40;;;14.45;50.03;93223.81;5047934;28;20900;-57
2023/01/18 06:22:40;;;;;;;5.53;1.37;;;14.30;79.40;;;14.43;50.10;93220.56;5048138;28;20494;-57
2023/01/18 06:25:09;;;;;;;4.27;1.17;;;14.40;79.50;;;14.41;50.36;93275.50;5047621;28;20456;-56
2023/01/18 06:27:38;;;;;;;5.30;1.40;;;14.30;79.70;;;14.41;50.43;93243.78;5047967;28;20479;-56
2023/01/18 06:30:07;;;;;;;5.93;1.80;;;14.30;80.10;;;14.44;50.30;93277.75;5047951;28;20452;-57
2023/01/18 06:32:34;;;;;;;6.47;1.27;;;14.30;80.10;;;14.61;50.37;93270.22;5046377;28;20824;-57
2023/01/18 06:35:01;;;;;;;11.67;1.83;;;14.50;80.40;;;14.98;49.76;93244.13;5047482;28;20501;-58
2023/01/18 06:37:30;;;;;;;3.37;1.13;;;14.70;79.90;;;15.44;49.23;93240.53;5047484;28;20535;-57
2023/01/18 06:39:57;;;;;;;7.50;1.20;;;15.20;79.30;;;15.99;47.95;93224.19;5047864;28;20448;-57
2023/01/18 06:42:24;;;;;;;3.23;1.30;;;15.60;77.90;;;16.47;47.18;93252.81;5048089;28;20448;-57
2023/01/18 06:44:52;;;;;;;4.80;1.50;;;16.10;76.10;;;16.82;45.75;93256.81;5047739;28;20452;-56
2023/01/18 06:47:19;;;;;;;4.27;1.70;;;16.50;74.30;;;17.22;45.37;93255.66;5047563;28;20835;-58
2023/01/18 06:49:47;;;;;;;7.37;2.27;;;16.90;73.20;;;17.44;44.43;93238.22;5047511;28;20460;-58
2023/01/18 06:52:15;;;;;;;5.40;1.53;;;17.20;71.50;;;17.71;44.07;93248.56;5043569;28;20489;-56
2023/01/18 06:54:43;;;;;;;3.07;1.40;;;17.40;70.50;;;17.95;43.36;93235.41;5047364;28;20497;-57
2023/01/18 06:57:11;;;;;;;7.33;1.07;;;17.70;69.10;;;18.20;43.45;93224.59;5047513;28;20448;-56
2023/01/18 06:59:39;;;;;;;4.10;1.07;;;18.10;68.30;;;18.49;42.74;93225.59;5047407;28;20495;-57
2023/01/18 07:02:06;;;;;;;11.30;1.77;;;18.40;67.60;;;18.81;41.65;93255.41;5046074;28;21100;-57
2023/01/18 07:04:36;;;;;;;7.53;1.10;;;18.70;66.00;;;19.04;42.01;93213.03;5047714;28;20944;-58
2023/01/18 07:07:04;;;;;;;16.60;2.40;;;19.00;64.80;;;19.27;41.99;93234.34;5047653;28;20436;-58
2023/01/18 07:09:31;;;;;;;12.73;2.20;;;19.40;65.00;;;19.60;40.57;93222.22;5045089;28;20472;-58
2023/01/18 07:12:00;;;;;;;7.27;2.40;;;19.60;63.20;;;19.73;40.73;93213.13;5047033;28;20463;-58
2023/01/18 07:14:27;;;;;;;14.10;3.03;;;19.90;62.10;;;19.87;40.55;93253.72;5046700;28;20504;-57
2023/01/18 07:16:55;;;;;;;5.50;1.70;;;20.10;61.50;;;19.95;39.90;93221.28;5047281;28;20890;-58
2023/01/18 07:19:22;;;;;;;6.90;1.73;;;20.20;60.10;;;20.11;39.58;93202.91;5046790;28;21022;-58
2023/01/18 07:21:52;;;;;;;15.17;1.90;;;20.40;60.00;;;20.31;39.11;93197.94;5046800;28;20451;-58
2023/01/18 07:24:20;;;;;;;3.40;1.50;;;20.60;59.10;;;20.38;38.73;93187.88;5046783;28;20483;-58
2023/01/18 07:26:47;;;;;;;13.93;2.00;;;20.60;58.00;;;20.17;38.55;93212.63;5046973;28;20494;-57
2023/01/18 07:29:16;;;;;;;12.77;1.90;;;20.50;57.40;;;20.02;39.16;93243.31;5046873;28;20475;-57
2023/01/18 07:31:43;;;;;;;6.77;1.97;;;20.30;57.70;;;20.14;39.25;93245.13;5046043;28;20498;-58
2023/01/18 07:34:10;;;;;;;9.03;1.73;;;20.30;58.00;;;20.22;38.99;93218.06;5045411;28;20495;-57
2023/01/18 07:36:38;;;;;;;6.00;1.80;;;20.30;57.50;;;20.36;38.72;93215.91;5046338;28;20455;-55
2023/01/18 07:39:05;;;;;;;6.10;1.77;;;20.40;57.50;;;20.40;38.21;93249.91;5046413;28;20537;-57
2023/01/18 07:41:32;;;;;;;18.00;2.50;;;20.40;56.90;;;20.45;38.39;93248.34;5046463;28;20542;-58
2023/01/18 07:44:00;;;;;;;21.00;2.50;;;20.40;56.80;;;20.49;38.50;93246.81;5046264;28;20538;-57
2023/01/18 07:46:29;;;;;;;9.60;1.40;;;20.40;57.10;;;20.62;37.96;93257.22;5046132;28;21082;-55
2023/01/18 07:48:56;;;;;;;5.17;1.33;;;20.40;56.80;;;20.63;37.78;93269.50;5046370;28;20551;-57
2023/01/18 07:51:23;;;;;;;10.07;2.87;;;20.30;56.30;;;20.47;37.91;93284.44;5044801;28;20455;-57
2023/01/18 07:53:53;;;;;;;8.57;1.77;;;20.20;56.20;;;20.36;38.06;93374.25;5046162;28;20491;-58
2023/01/18 07:56:21;;;;;;;23.53;1.87;;;20.10;56.30;;;20.34;38.13;93332.81;5046539;28;20896;-57
2023/01/18 07:58:49;;;;;;;8.70;1.97;;;20.10;56.40;;;20.45;38.03;93315.94;5046063;28;20488;-56
2023/01/18 08:01:18;;;;;;;4.90;1.20;;;20.10;56.50;;;20.59;38.03;93311.91;5043177;28;20456;-57
2023/01/18 08:03:47;;;;;;;4.60;1.60;;;20.20;56.40;;;20.81;37.79;93334.50;5041347;28;20891;-57
2023/01/18 08:06:16;;;;;;;10.53;1.60;;;20.40;56.30;;;20.96;37.26;93316.06;5045733;28;20448;-58
2023/01/18 08:08:43;;;;;;;4.40;1.10;;;20.60;55.80;;;20.94;36.97;93355.56;5042875;28;20471;-58
2023/01/18 08:11:11;;;;;;;13.83;2.27;;;20.50;55.00;;;20.76;37.27;93311.97;5045899;28;20459;-57
2023/01/18 08:13:38;;;;;;;13.70;1.77;;;20.50;55.00;;;20.71;37.48;93319.91;5044910;28;21031;-56
2023/01/18 08:16:07;;;;;;;16.87;1.30;;;20.40;55.20;;;20.55;37.61;93320.66;5042893;28;20455;-59
2023/01/18 08:18:35;;;;;;;14.57;1.87;;;20.20;55.10;;;20.40;37.97;93324.66;5045684;28;20578;-56
2023/01/18 08:21:03;;;;;;;9.70;1.20;;;20.10;55.60;;;20.29;37.97;93375.44;5046273;28;20506;-58
2023/01/18 08:23:31;;;;;;;6.37;1.60;;;19.90;55.80;;;20.32;38.00;93359.75;5045641;28;20463;-57
2023/01/18 08:26:02;;;;;;;6.90;1.60;;;19.90;55.90;;;20.36;38.11;93397.50;5045260;28;20456;-58
2023/01/18 08:28:29;;;;;;;3.00;1.10;;;19.90;55.80;;;20.39;38.20;93330.25;5043219;28;20488;-59
2023/01/18 08:31:07;;;;;;;6.93;1.70;;;20.00;56.10;;;20.50;37.85;93390.00;5044329;28;20455;-58
2023/01/18 08:33:38;;;;;;;16.53;1.30;;;20.10;56.00;;;20.55;37.66;93377.53;5042536;28;20499;-58
2023/01/18 08:36:11;;;;;;;6.33;1.90;;;20.10;55.70;;;20.51;38.06;93392.44;5041739;28;20451;-57
2023/01/18 08:38:38;;;;;;;5.37;1.47;;;20.10;55.80;;;20.60;37.76;93387.53;5042490;28;20553;-58
2023/01/18 08:41:06;;;;;;;8.90;1.60;;;20.20;55.80;;;20.71;37.92;93407.25;5044609;28;20444;-57
2023/01/18 08:43:33;;;;;;;5.70;1.03;;;20.20;55.60;;;20.85;37.48;93392.56;5045602;28;20467;-55
2023/01/18 08:46:01;;;;;;;7.80;1.43;;;20.40;55.70;;;20.94;37.58;93382.28;5044746;28;20501;-57
2023/01/18 08:48:28;;;;;;;10.60;1.90;;;20.50;55.60;;;21.16;37.59;93411.78;5044861;28;20471;-57
2023/01/18 08:50:59;;;;;;;4.60;1.47;;;20.70;56.10;;;21.44;37.30;93396.75;5044913;28;20937;-57
2023/01/18 08:53:28;;;;;;;10.10;1.70;;;20.90;55.30;;;21.65;36.14;93408.63;5044898;28;20549;-57
2023/01/18 08:55:55;;;;;;;14.80;1.40;;;21.10;54.30;;;21.69;36.35;93409.75;5044544;28;20471;-57
2023/01/18 08:58:23;;;;;;;7.33;1.60;;;21.20;54.10;;;21.67;36.22;93418.03;5044703;28;20479;-58
2023/01/18 09:00:50;;;;;;;8.80;2.37;;;21.20;53.90;;;21.65;36.03;93405.94;5044104;28;20940;-57
2023/01/18 09:03:20;;;;;;;3.80;1.60;;;21.20;53.70;;;21.69;36.54;93425.81;5044160;28;20487;-56
2023/01/18 09:05:48;;;;;;;3.23;1.30;;;21.20;53.90;;;21.80;35.86;93427.56;5044696;28;20585;-56
2023/01/18 09:08:15;;;;;;;2.60;0.87;;;21.30;53.80;;;21.87;35.81;93451.50;5044887;28;20522;-58
2023/01/18 09:10:44;;;;;;;9.03;2.20;;;21.40;53.70;;;21.97;35.49;93469.59;5045049;28;20448;-56
2023/01/18 09:13:11;;;;;;;5.73;1.33;;;21.40;53.30;;;21.98;35.82;93460.47;5044693;28;20496;-58
2023/01/18 09:15:38;;;;;;;4.70;1.60;;;21.50;53.40;;;22.10;35.83;93468.44;5045026;28;20467;-57
2023/01/18 09:18:07;;;;;;;8.00;1.77;;;21.50;52.90;;;22.09;35.90;93448.88;5045176;28;20479;-57
2023/01/18 09:20:35;;;;;;;9.00;2.40;;;21.60;52.80;;;22.06;35.65;93456.59;5045188;28;20452;-57
2023/01/18 09:23:04;;;;;;;6.60;1.93;;;21.60;53.00;;;22.12;35.99;93456.44;5040949;28;20558;-56
2023/01/18 09:25:32;;;;;;;9.03;2.20;;;21.60;52.70;;;22.09;35.68;93451.56;5042964;28;20448;-58
2023/01/18 09:28:01;;;;;;;6.90;2.97;;;21.60;52.90;;;22.08;35.40;93481.25;5045257;28;20475;-57
2023/01/18 09:30:28;;;;;;;10.30;3.27;;;21.60;52.70;;;22.09;35.64;93472.16;5044048;28;20455;-56
2023/01/18 09:32:57;;;;;;;10.37;1.97;;;21.60;52.70;;;22.14;35.72;93494.47;5044375;28;20528;-56
2023/01/18 09:35:24;;;;;;;4.50;1.97;;;21.60;52.60;;;22.04;36.31;93472.88;5044831;28;20451;-59
2023/01/18 09:37:51;;;;;;;4.67;1.80;;;21.60;52.80;;;22.12;35.88;93442.22;5047468;28;20901;-59
2023/01/18 09:40:20;;;;;;;12.07;1.70;;;21.60;52.90;;;22.15;35.97;93439.88;5049455;28;20534;-56
2023/01/18 09:42:50;;;;;;;5.77;1.87;;;21.60;52.60;;;22.10;35.50;93447.00;5048688;28;20489;-56
2023/01/18 09:45:29;;;;;;;7.90;1.30;;;21.60;52.40;;;21.98;35.27;93479.22;5049092;28;20455;-58
2023/01/18 09:48:01;;;;;;;5.63;1.47;;;21.50;52.30;;;21.73;35.85;93448.34;5048363;28;20546;-57
2023/01/18 09:50:29;;;;;;;6.67;1.33;;;21.30;52.40;;;21.44;36.00;93475.16;5044983;28;20520;-57
2023/01/18 09:52:59;;;;;;;20.03;1.90;;;21.10;52.70;;;21.40;36.28;93441.91;5047881;28;20479;-57
2023/01/18 09:55:32;;;;;;;22.83;2.40;;;21.00;53.10;;;21.45;36.29;93449.19;5048537;28;20490;-57
2023/01/18 09:58:13;;;;;;;13.33;1.97;;;21.00;53.40;;;21.57;36.31;93441.13;5047891;28;20472;-57
2023/01/18 10:00:44;;;;;;;11.80;1.93;;;21.10;53.30;;;21.80;36.38;93462.38;5048061;28;20450;-58
2023/01/18 10:03:14;;;;;;;28.50;2.10;;;21.30;53.40;;;21.94;35.75;93451.34;5047676;28;20564;-58
2023/01/18 10:05:46;;;;;;;10.03;1.03;;;21.40;52.60;;;22.16;35.76;93446.81;5047985;28;20448;-57
2023/01/18 10:08:16;;;;;;;9.73;1.50;;;21.60;52.60;;;22.35;35.27;93454.59;5047782;28;20868;-56
2023/01/18 10:10:50;;;;;;;12.20;1.90;;;21.80;52.00;;;22.45;35.27;93454.75;5044187;28;20452;-57
2023/01/18 10:13:34;;;;;;;10.50;1.60;;;21.90;52.00;;;22.68;34.74;93434.94;5047466;28;21062;-57
2023/01/18 10:16:03;;;;;;;7.30;2.03;;;22.10;51.80;;;23.01;34.28;93451.13;5042696;28;20466;-57
2023/01/18 10:18:30;;;;;;;12.33;1.90;;;22.40;51.10;;;23.18;33.68;93457.22;5048002;28;20472;-57
2023/01/18 10:21:00;;;;;;;6.03;1.73;;;22.60;50.50;;;23.09;33.92;93458.72;5047569;28;20464;-58
2023/01/18 10:23:31;;;;;;;5.43;1.67;;;22.60;50.00;;;22.87;33.27;93448.81;5046872;28;20522;-56
2023/01/18 10:26:01;;;;;;;9.67;2.03;;;22.40;49.70;;;22.84;33.49;93454.69;5046287;28;20452;-57
2023/01/18 10:28:38;;;;;;;13.30;1.60;;;22.40;50.00;;;22.88;34.04;93447.75;5046900;28;20479;-57
2023/01/18 10:31:23;;;;;;;3.13;1.57;;;22.40;49.90;;;22.85;34.20;93467.03;5045506;28;20451;-56
2023/01/18 10:33:53;;;;;;;9.20;1.77;;;22.40;49.90;;;22.83;33.61;93445.00;5045514;28;20491;-57
2023/01/18 10:36:23;;;;;;;35.93;5.03;;;22.30;49.70;;;22.96;33.62;93500.13;5047695;28;20513;-58
2023/01/18 10:38:50;;;;;;;8.77;1.27;;;22.50;49.40;;;23.07;33.25;93461.63;5046937;28;20471;-58
2023/01/18 10:41:20;;;;;;;5.63;1.43;;;22.60;49.50;;;23.21;33.18;93413.78;5047116;28;20459;-58
2023/01/18 10:43:47;;;;;;;9.87;1.67;;;22.70;49.50;;;23.35;32.32;93461.69;5043371;28;20474;-56
2023/01/18 10:46:18;;;;;;;7.60;1.47;;;22.80;48.70;;;23.40;32.22;93491.25;5047638;28;20497;-57
2023/01/18 10:48:47;;;;;;;8.10;1.50;;;22.90;48.40;;;23.40;32.38;93480.50;5046487;28;20475;-59
2023/01/18 10:51:31;;;;;;;7.33;1.40;;;22.90;48.60;;;23.25;32.46;93481.16;5047994;28;20836;-56
2023/01/18 10:54:00;;;;;;;8.13;1.87;;;22.80;48.50;;;23.11;32.85;93494.16;5046970;28;21337;-59
2023/01/18 10:56:28;;;;;;;5.03;1.80;;;22.70;48.60;;;23.04;32.97;93477.44;5047799;28;20471;-56
2023/01/18 10:58:57;;;;;;;10.70;2.50;;;22.60;48.80;;;22.91;33.42;93498.22;5046349;28;20535;-55
2023/01/18 11:01:27;;;;;;;10.63;1.50;;;22.50;48.70;;;22.90;33.78;93501.13;5046731;28;20510;-57